Terminal Aerodrome Forecast
Issued by NWS Mobile, AL

Home | Current Version | Previous Version | Text Only | Print | Product List | Glossary On
Versions: 1 2 3 4 5 6 7 8 9 10 11 12 13 14 15 16 17 18 19 20 21 22 23 24 25 26 27 28
000
FTUS44 KMOB 242320
TAFMOB
TAF
KMOB 242320Z 2500/2524 14014KT P6SM BKN025 OVC040
     FM250300 14012KT P6SM BKN015
     FM251300 16013G20KT P6SM OVC025
     FM251600 17016G24KT P6SM OVC050 PROB30 2518/2524 3SM TSRA
      BKN025CB=

USA.gov is the U.S. government's official web portal to all federal, state and local government web resources and services.